createdAt,value
2023-02-22T00:00:46.013Z,8.11
2023-02-22T00:01:46.810Z,8.10
2023-02-22T00:02:47.913Z,8.10
2023-02-22T00:03:48.076Z,8.10
2023-02-22T00:04:48.785Z,8.11
2023-02-22T00:05:49.490Z,8.11
2023-02-22T00:06:50.202Z,8.11
2023-02-22T00:07:50.916Z,8.08
2023-02-22T00:08:51.615Z,8.07
2023-02-22T00:09:52.335Z,8.07
2023-02-22T00:10:53.031Z,8.08
2023-02-22T00:11:53.752Z,8.07
2023-02-22T00:12:54.871Z,8.07
2023-02-22T00:13:55.075Z,8.05
2023-02-22T00:14:55.780Z,8.08
2023-02-22T00:15:56.504Z,8.08
2023-02-22T00:16:57.163Z,8.10
2023-02-22T00:17:58.381Z,8.07
2023-02-22T00:18:58.583Z,8.07
2023-02-22T00:19:59.290Z,8.04
2023-02-22T00:21:00.128Z,8.02
2023-02-22T00:22:00.795Z,8.04
2023-02-22T00:23:01.519Z,8.01
2023-02-22T00:24:02.223Z,8.00
2023-02-22T00:25:02.924Z,7.97
2023-02-22T00:26:03.629Z,7.97
2023-02-22T00:27:04.364Z,7.92
2023-02-22T00:28:05.372Z,7.92
2023-02-22T00:29:05.592Z,7.90
2023-02-22T00:30:06.345Z,7.90
2023-02-22T00:31:07.024Z,7.89
2023-02-22T00:32:07.764Z,7.89
2023-02-22T00:33:08.873Z,7.87
2023-02-22T00:34:09.085Z,7.89
2023-02-22T00:35:09.785Z,7.83
2023-02-22T00:36:10.501Z,7.82
2023-02-22T00:37:11.203Z,7.82
2023-02-22T00:38:12.373Z,7.80
2023-02-22T00:39:12.587Z,7.75
2023-02-22T00:40:13.294Z,7.75
2023-02-22T00:41:14.030Z,7.75
2023-02-22T00:42:14.766Z,7.75
2023-02-22T00:43:15.874Z,7.75
2023-02-22T00:44:16.082Z,7.74
2023-02-22T00:45:16.792Z,7.71
2023-02-22T00:46:17.547Z,7.71
2023-02-22T00:47:18.213Z,7.68
2023-02-22T00:48:19.386Z,7.67
2023-02-22T00:49:19.613Z,7.67
2023-02-22T00:50:20.359Z,7.64
2023-02-22T00:51:21.023Z,7.63
2023-02-22T00:52:21.726Z,7.64
2023-02-22T00:53:22.876Z,7.63
2023-02-22T00:54:23.084Z,7.63
2023-02-22T00:55:23.788Z,7.63
2023-02-22T00:56:24.501Z,7.60
2023-02-22T00:57:25.215Z,7.55
2023-02-22T00:58:25.919Z,7.53
2023-02-22T00:59:26.614Z,7.50
2023-02-22T01:00:27.323Z,7.48
2023-02-22T01:01:28.110Z,7.42
2023-02-22T01:02:28.782Z,7.40
2023-02-22T01:03:29.878Z,7.39
2023-02-22T01:04:30.094Z,7.40
2023-02-22T01:05:30.989Z,7.37
2023-02-22T01:06:31.793Z,7.34
2023-02-22T01:07:32.498Z,7.32
2023-02-22T01:08:33.211Z,7.28
2023-02-22T01:09:33.915Z,7.28
2023-02-22T01:10:34.623Z,7.28
2023-02-22T01:11:35.330Z,7.27
2023-02-22T01:12:36.096Z,7.25
2023-02-22T01:13:36.874Z,7.25
2023-02-22T01:14:37.576Z,7.25
2023-02-22T01:15:38.293Z,7.27
2023-02-22T01:16:39.016Z,7.25
2023-02-22T01:17:39.697Z,7.25
2023-02-22T01:18:40.883Z,7.25
2023-02-22T01:19:41.114Z,7.24
2023-02-22T01:20:41.818Z,7.20
2023-02-22T01:21:42.526Z,7.20
2023-02-22T01:22:43.232Z,7.23
2023-02-22T01:23:44.372Z,7.23
2023-02-22T01:24:44.580Z,7.23
2023-02-22T01:25:45.294Z,7.21
2023-02-22T01:26:46.002Z,7.20
2023-02-22T01:27:46.718Z,7.20
2023-02-22T01:28:47.421Z,7.20
2023-02-22T01:29:48.125Z,7.17
2023-02-22T01:30:48.943Z,7.17
2023-02-22T01:31:49.625Z,7.16
2023-02-22T01:32:50.266Z,7.16
2023-02-22T01:33:50.986Z,7.15
2023-02-22T01:34:51.685Z,7.15
2023-02-22T01:35:52.397Z,7.16
2023-02-22T01:36:53.104Z,7.16
2023-02-22T01:37:53.811Z,7.12
2023-02-22T01:38:54.875Z,7.10
2023-02-22T01:39:55.083Z,7.10
2023-02-22T01:40:55.791Z,7.07
2023-02-22T01:41:56.512Z,7.03
2023-02-22T01:42:57.232Z,7.06
2023-02-22T01:43:58.375Z,7.06
2023-02-22T01:44:58.588Z,7.05
2023-02-22T01:45:59.364Z,7.06
2023-02-22T01:47:00.038Z,7.06
2023-02-22T01:48:00.711Z,7.06
2023-02-22T01:49:01.884Z,7.06
2023-02-22T01:50:02.088Z,7.03
2023-02-22T01:51:02.817Z,7.06
2023-02-22T01:52:03.503Z,7.05
2023-02-22T01:53:04.209Z,7.06
2023-02-22T01:54:04.924Z,7.07
2023-02-22T01:55:05.627Z,7.09
2023-02-22T01:56:06.333Z,7.09
2023-02-22T01:57:07.056Z,7.09
2023-02-22T01:58:07.774Z,7.07
2023-02-22T01:59:08.877Z,7.09
2023-02-22T02:00:09.084Z,7.10
2023-02-22T02:01:09.796Z,7.09
2023-02-22T02:02:10.528Z,7.09
2023-02-22T02:03:11.204Z,7.09
2023-02-22T02:04:12.541Z,7.07
2023-02-22T02:05:12.770Z,7.05
2023-02-22T02:06:13.423Z,7.05
2023-02-22T02:07:14.130Z,7.06
2023-02-22T02:08:14.845Z,7.03
2023-02-22T02:09:15.872Z,7.03
2023-02-22T02:10:16.082Z,7.07
2023-02-22T02:11:17.121Z,7.09
2023-02-22T02:12:17.384Z,7.10
2023-02-22T02:13:18.111Z,7.10
2023-02-22T02:14:18.873Z,7.12
2023-02-22T02:15:19.577Z,7.12
2023-02-22T02:16:20.284Z,7.15
2023-02-22T02:17:21.008Z,7.15
2023-02-22T02:18:21.669Z,7.15
2023-02-22T02:19:22.877Z,7.12
2023-02-22T02:20:23.099Z,7.10
2023-02-22T02:21:23.809Z,7.09
2023-02-22T02:22:24.517Z,7.09
2023-02-22T02:23:25.233Z,7.10
2023-02-22T02:24:25.938Z,7.10
2023-02-22T02:25:26.671Z,7.07
2023-02-22T02:26:27.353Z,7.09
2023-02-22T02:27:28.068Z,7.06
2023-02-22T02:28:28.790Z,7.02
2023-02-22T02:29:29.482Z,7.06
2023-02-22T02:30:30.228Z,7.05
2023-02-22T02:31:30.921Z,7.05
2023-02-22T02:32:31.695Z,7.06
2023-02-22T02:33:32.350Z,7.03
2023-02-22T02:34:33.053Z,7.03
2023-02-22T02:35:33.754Z,7.02
2023-02-22T02:36:34.471Z,7.02
2023-02-22T02:37:35.175Z,7.03
2023-02-22T02:38:35.895Z,7.03
2023-02-22T02:39:36.884Z,7.05
2023-02-22T02:40:37.079Z,7.03
2023-02-22T02:41:37.792Z,7.05
2023-02-22T02:42:38.699Z,7.05
2023-02-22T02:43:39.428Z,6.99
2023-02-22T02:44:40.126Z,6.99
2023-02-22T02:45:40.820Z,7.02
2023-02-22T02:46:41.533Z,7.03
2023-02-22T02:47:42.251Z,7.05
2023-02-22T02:48:42.913Z,7.03
2023-02-22T02:49:43.892Z,7.03
2023-02-22T02:50:44.597Z,7.02
2023-02-22T02:51:45.306Z,7.02
2023-02-22T02:52:46.018Z,6.99
2023-02-22T02:53:46.716Z,7.02
2023-02-22T02:54:47.878Z,7.03
2023-02-22T02:55:48.083Z,6.99
2023-02-22T02:56:48.789Z,6.98
2023-02-22T02:57:49.490Z,6.98
2023-02-22T02:58:50.218Z,6.98
2023-02-22T02:59:51.384Z,6.98
2023-02-22T03:00:51.587Z,6.99
2023-02-22T03:01:52.382Z,6.97
2023-02-22T03:02:53.072Z,6.95
2023-02-22T03:03:53.706Z,6.95
2023-02-22T03:04:54.420Z,6.94
2023-02-22T03:05:55.173Z,6.91
2023-02-22T03:06:55.862Z,6.89
2023-02-22T03:07:56.574Z,6.89
2023-02-22T03:08:57.278Z,6.88
2023-02-22T03:09:58.397Z,6.88
2023-02-22T03:10:58.597Z,6.88
2023-02-22T03:11:59.302Z,6.88
2023-02-22T03:13:00.002Z,6.89
2023-02-22T03:14:00.730Z,6.88
2023-02-22T03:15:01.433Z,6.88
2023-02-22T03:16:02.157Z,6.91
2023-02-22T03:17:02.836Z,6.87
2023-02-22T03:18:03.556Z,6.85
2023-02-22T03:19:04.207Z,6.84
2023-02-22T03:20:05.386Z,6.81
2023-02-22T03:21:05.585Z,6.77
2023-02-22T03:22:06.294Z,6.76
2023-02-22T03:23:07.007Z,6.76
2023-02-22T03:24:07.701Z,6.76
2023-02-22T03:25:08.912Z,6.73
2023-02-22T03:26:09.093Z,6.71
2023-02-22T03:27:09.796Z,6.71
2023-02-22T03:28:10.504Z,6.70
2023-02-22T03:29:11.243Z,6.70
2023-02-22T03:30:11.938Z,6.70
2023-02-22T03:31:12.709Z,6.70
2023-02-22T03:32:13.380Z,6.70
2023-02-22T03:33:14.076Z,6.69
2023-02-22T03:34:14.754Z,6.67
2023-02-22T03:35:15.479Z,6.67
2023-02-22T03:36:16.190Z,6.64
2023-02-22T03:37:16.905Z,6.62
2023-02-22T03:38:17.601Z,6.59
2023-02-22T03:39:18.304Z,6.54
2023-02-22T03:40:19.016Z,6.54
2023-02-22T03:41:19.731Z,6.54
2023-02-22T03:42:20.429Z,6.52
2023-02-22T03:43:21.141Z,6.51
2023-02-22T03:44:21.867Z,6.49
2023-02-22T03:45:22.551Z,6.49
2023-02-22T03:46:23.348Z,6.49
2023-02-22T03:47:24.004Z,6.48
2023-02-22T03:48:24.730Z,6.48
2023-02-22T03:49:25.377Z,6.48
2023-02-22T03:50:26.414Z,6.49
2023-02-22T03:51:26.605Z,6.46
2023-02-22T03:52:27.316Z,6.46
2023-02-22T03:53:28.018Z,6.43
2023-02-22T03:54:28.728Z,6.41
2023-02-22T03:55:29.445Z,6.41
2023-02-22T03:56:30.149Z,6.38
2023-02-22T03:57:30.852Z,6.37
2023-02-22T03:58:31.558Z,6.31
2023-02-22T03:59:32.279Z,6.28
2023-02-22T04:00:33.401Z,6.27
2023-02-22T04:01:33.595Z,6.22
2023-02-22T04:02:34.300Z,6.19
2023-02-22T04:03:35.027Z,6.15
2023-02-22T04:04:35.713Z,6.06
2023-02-22T04:05:36.406Z,6.03
2023-02-22T04:06:37.105Z,6.06
2023-02-22T04:07:37.812Z,6.04
2023-02-22T04:08:38.520Z,6.04
2023-02-22T04:09:39.223Z,6.08
2023-02-22T04:10:40.389Z,6.08
2023-02-22T04:11:40.598Z,6.09
2023-02-22T04:12:41.302Z,6.09
2023-02-22T04:13:42.011Z,6.09
2023-02-22T04:14:42.737Z,6.09
2023-02-22T04:15:43.462Z,6.12
2023-02-22T04:16:44.135Z,6.14
2023-02-22T04:17:44.840Z,6.12
2023-02-22T04:18:45.566Z,6.14
2023-02-22T04:19:46.220Z,6.14
2023-02-22T04:20:47.394Z,6.11
2023-02-22T04:21:47.602Z,6.06
2023-02-22T04:22:48.311Z,6.11
2023-02-22T04:23:49.025Z,6.06
2023-02-22T04:24:49.726Z,6.04
2023-02-22T04:25:50.896Z,6.06
2023-02-22T04:26:51.111Z,6.06
2023-02-22T04:27:51.801Z,6.03
2023-02-22T04:28:52.524Z,6.00
2023-02-22T04:29:53.257Z,5.97
2023-02-22T04:30:54.452Z,5.97
2023-02-22T04:31:54.631Z,5.94
2023-02-22T04:32:55.313Z,5.93
2023-02-22T04:33:56.035Z,5.91
2023-02-22T04:34:56.749Z,5.93
2023-02-22T04:35:57.479Z,5.96
2023-02-22T04:36:58.180Z,5.99
2023-02-22T04:37:58.889Z,5.96
2023-02-22T04:38:59.601Z,5.96
2023-02-22T04:40:00.310Z,5.90
2023-02-22T04:41:01.393Z,5.90
2023-02-22T04:42:01.606Z,5.86
2023-02-22T04:43:02.321Z,5.82
2023-02-22T04:44:03.016Z,5.79
2023-02-22T04:45:03.756Z,5.75
2023-02-22T04:46:05.012Z,5.74
2023-02-22T04:47:05.161Z,5.67
2023-02-22T04:48:05.873Z,5.63
2023-02-22T04:49:06.590Z,5.63
2023-02-22T04:50:07.222Z,5.61
2023-02-22T04:51:08.408Z,5.57
2023-02-22T04:52:08.617Z,5.56
2023-02-22T04:53:09.338Z,5.56
2023-02-22T04:54:10.026Z,5.56
2023-02-22T04:55:10.732Z,5.54
2023-02-22T04:56:11.446Z,5.51
2023-02-22T04:57:12.167Z,5.48
2023-02-22T04:58:12.873Z,5.48
2023-02-22T04:59:13.604Z,5.46
2023-02-22T05:00:14.314Z,5.43
2023-02-22T05:01:15.793Z,5.42
2023-02-22T05:02:15.619Z,5.46
2023-02-22T05:03:16.301Z,5.46
2023-02-22T05:04:17.019Z,5.49
2023-02-22T05:05:17.713Z,5.51
2023-02-22T05:06:18.441Z,5.51
2023-02-22T05:07:19.126Z,5.51
2023-02-22T05:08:19.830Z,5.54
2023-02-22T05:09:20.544Z,5.54
2023-02-22T05:10:21.259Z,5.56
2023-02-22T05:11:22.405Z,5.58
2023-02-22T05:12:22.613Z,5.61
2023-02-22T05:13:23.320Z,5.63
2023-02-22T05:14:24.028Z,5.63
2023-02-22T05:15:24.752Z,5.61
2023-02-22T05:16:25.916Z,5.61
2023-02-22T05:17:26.127Z,5.58
2023-02-22T05:18:26.828Z,5.57
2023-02-22T05:19:27.552Z,5.57
2023-02-22T05:20:28.207Z,5.51
2023-02-22T05:21:29.399Z,5.49
2023-02-22T05:22:29.613Z,5.46
2023-02-22T05:23:30.318Z,5.43
2023-02-22T05:24:31.031Z,5.40
2023-02-22T05:25:31.731Z,5.42
2023-02-22T05:26:32.914Z,5.39
2023-02-22T05:27:33.104Z,5.38
2023-02-22T05:28:33.811Z,5.35
2023-02-22T05:29:34.518Z,5.35
2023-02-22T05:30:35.301Z,5.33
2023-02-22T05:31:36.068Z,5.30
2023-02-22T05:32:36.755Z,5.28
2023-02-22T05:33:37.471Z,5.25
2023-02-22T05:34:38.192Z,5.25
2023-02-22T05:35:38.848Z,5.24
2023-02-22T05:36:39.584Z,5.21
2023-02-22T05:37:40.285Z,5.21
2023-02-22T05:38:40.990Z,5.18
2023-02-22T05:39:41.701Z,5.20
2023-02-22T05:40:42.399Z,5.17
2023-02-22T05:41:43.406Z,5.18
2023-02-22T05:42:43.605Z,5.18
2023-02-22T05:43:44.314Z,5.18
2023-02-22T05:44:45.017Z,5.15
2023-02-22T05:45:45.738Z,5.10
2023-02-22T05:46:46.449Z,5.10
2023-02-22T05:47:47.141Z,5.09
2023-02-22T05:48:47.845Z,5.06
2023-02-22T05:49:48.571Z,5.06
2023-02-22T05:50:49.237Z,5.03
2023-02-22T05:51:50.419Z,5.02
2023-02-22T05:52:50.627Z,5.03
2023-02-22T05:53:51.337Z,5.03
2023-02-22T05:54:52.039Z,5.03
2023-02-22T05:55:52.744Z,5.03
2023-02-22T05:56:53.908Z,5.00
2023-02-22T05:57:54.110Z,4.99
2023-02-22T05:58:54.819Z,4.96
2023-02-22T05:59:55.527Z,4.94
2023-02-22T06:00:56.292Z,4.94
2023-02-22T06:01:57.401Z,4.91
2023-02-22T06:02:57.617Z,4.89
2023-02-22T06:03:58.310Z,4.88
2023-02-22T06:04:59.041Z,4.86
2023-02-22T06:05:59.724Z,4.85
2023-02-22T06:07:00.900Z,4.84
2023-02-22T06:08:01.117Z,4.84
2023-02-22T06:09:01.808Z,4.84
2023-02-22T06:10:02.514Z,4.80
2023-02-22T06:11:03.222Z,4.78
2023-02-22T06:12:03.952Z,4.78
2023-02-22T06:13:04.653Z,4.82
2023-02-22T06:14:05.366Z,4.82
2023-02-22T06:15:06.065Z,4.82
2023-02-22T06:16:06.857Z,4.82
2023-02-22T06:17:07.899Z,4.82
2023-02-22T06:18:08.103Z,4.82
2023-02-22T06:19:09.041Z,4.84
2023-02-22T06:20:09.774Z,4.78
2023-02-22T06:21:10.423Z,4.80
2023-02-22T06:22:11.137Z,4.77
2023-02-22T06:23:11.844Z,4.75
2023-02-22T06:24:12.547Z,4.75
2023-02-22T06:25:13.270Z,4.77
2023-02-22T06:26:13.980Z,4.73
2023-02-22T06:27:14.898Z,4.75
2023-02-22T06:28:15.634Z,4.77
2023-02-22T06:29:16.308Z,4.78
2023-02-22T06:30:17.056Z,4.78
2023-02-22T06:31:18.153Z,4.77
2023-02-22T06:32:18.583Z,4.80
2023-02-22T06:33:19.231Z,4.82
2023-02-22T06:34:19.946Z,4.84
2023-02-22T06:35:20.662Z,4.88
2023-02-22T06:36:21.342Z,4.86
2023-02-22T06:37:22.053Z,4.86
2023-02-22T06:38:22.759Z,4.85
2023-02-22T06:39:23.467Z,4.85
2023-02-22T06:40:24.179Z,4.88
2023-02-22T06:41:24.890Z,4.89
2023-02-22T06:42:25.643Z,4.86
2023-02-22T06:43:26.346Z,4.88
2023-02-22T06:44:27.057Z,4.88
2023-02-22T06:45:27.792Z,4.89
2023-02-22T06:46:28.528Z,4.89
2023-02-22T06:47:29.402Z,4.91
2023-02-22T06:48:30.111Z,4.92
2023-02-22T06:49:30.813Z,4.94
2023-02-22T06:50:31.632Z,4.97
2023-02-22T06:51:32.467Z,4.94
2023-02-22T06:52:33.417Z,4.94
2023-02-22T06:53:34.125Z,4.91
2023-02-22T06:54:34.831Z,4.94
2023-02-22T06:55:35.559Z,4.99
2023-02-22T06:56:36.259Z,4.99
2023-02-22T06:57:37.398Z,4.99
2023-02-22T06:58:37.612Z,4.96
2023-02-22T06:59:38.311Z,4.99
2023-02-22T07:00:39.183Z,5.00
2023-02-22T07:01:39.878Z,5.00
2023-02-22T07:02:40.897Z,5.00
2023-02-22T07:03:41.213Z,5.00
2023-02-22T07:04:43.575Z,5.00
2023-02-22T07:05:42.849Z,4.99
2023-02-22T07:06:43.544Z,5.00
2023-02-22T07:07:44.401Z,5.02
2023-02-22T07:08:45.107Z,5.02
2023-02-22T07:09:45.823Z,5.03
2023-02-22T07:10:46.528Z,5.06
2023-02-22T07:11:47.238Z,5.06
2023-02-22T07:12:48.402Z,5.07
2023-02-22T07:13:48.618Z,5.09
2023-02-22T07:14:49.318Z,5.12
2023-02-22T07:15:50.043Z,5.17
2023-02-22T07:16:50.764Z,5.18
2023-02-22T07:17:51.904Z,5.20
2023-02-22T07:18:52.123Z,5.22
2023-02-22T07:19:52.823Z,5.22
2023-02-22T07:20:53.545Z,5.24
2023-02-22T07:21:54.188Z,5.27
2023-02-22T07:22:54.911Z,5.31
2023-02-22T07:23:55.620Z,5.31
2023-02-22T07:24:56.407Z,5.33
2023-02-22T07:25:57.152Z,5.36
2023-02-22T07:26:57.865Z,5.42
2023-02-22T07:27:58.906Z,5.42
2023-02-22T07:28:59.116Z,5.42
2023-02-22T07:29:59.829Z,5.40
2023-02-22T07:31:00.588Z,5.43
2023-02-22T07:32:01.430Z,5.43
2023-02-22T07:33:02.496Z,5.45
2023-02-22T07:34:02.692Z,5.46
2023-02-22T07:35:03.405Z,5.49
2023-02-22T07:36:04.142Z,5.51
2023-02-22T07:37:04.775Z,5.54
2023-02-22T07:38:05.911Z,5.57
2023-02-22T07:39:06.121Z,5.57
2023-02-22T07:40:06.824Z,5.57
2023-02-22T07:41:07.544Z,5.63
2023-02-22T07:42:08.261Z,5.65
2023-02-22T07:43:08.967Z,5.64
2023-02-22T07:44:09.673Z,5.67
2023-02-22T07:45:10.383Z,5.68
2023-02-22T07:46:11.129Z,5.74
2023-02-22T07:47:11.857Z,5.74
2023-02-22T07:48:12.929Z,5.76
2023-02-22T07:49:13.127Z,5.81
2023-02-22T07:50:13.835Z,5.83
2023-02-22T07:51:14.992Z,5.89
2023-02-22T07:52:15.240Z,5.96
2023-02-22T07:53:16.447Z,5.97
2023-02-22T07:54:16.637Z,6.00
2023-02-22T07:55:17.363Z,6.04
2023-02-22T07:56:18.062Z,6.11
2023-02-22T07:57:18.773Z,6.17
2023-02-22T07:58:19.910Z,6.18
2023-02-22T07:59:20.120Z,6.22
2023-02-22T08:00:20.827Z,6.22
2023-02-22T08:01:21.540Z,6.30
2023-02-22T08:02:22.276Z,6.31
2023-02-22T08:03:23.592Z,6.37
2023-02-22T08:04:23.795Z,6.40
2023-02-22T08:05:24.526Z,6.43
2023-02-22T08:06:25.241Z,6.44
2023-02-22T08:07:25.923Z,6.49
2023-02-22T08:08:26.633Z,6.56
2023-02-22T08:09:27.340Z,6.64
2023-02-22T08:10:28.053Z,6.67
2023-02-22T08:11:28.770Z,6.71
2023-02-22T08:12:29.482Z,6.77
2023-02-22T08:13:30.410Z,6.80
2023-02-22T08:14:31.140Z,6.84
2023-02-22T08:15:31.843Z,6.73
2023-02-22T08:16:32.555Z,6.69
2023-02-22T08:17:33.285Z,6.70
2023-02-22T08:18:34.408Z,6.76
2023-02-22T08:19:34.617Z,6.81
2023-02-22T08:20:35.325Z,6.81
2023-02-22T08:21:36.072Z,6.88
2023-02-22T08:22:36.698Z,6.91
2023-02-22T08:23:37.412Z,6.97
2023-02-22T08:24:38.139Z,7.07
2023-02-22T08:25:38.837Z,7.10
2023-02-22T08:26:39.565Z,7.17
2023-02-22T08:27:40.251Z,7.25
2023-02-22T08:28:41.410Z,7.30
2023-02-22T08:29:41.649Z,7.42
2023-02-22T08:30:42.376Z,7.52
2023-02-22T08:31:43.129Z,7.64
2023-02-22T08:32:43.888Z,7.72
2023-02-22T08:33:44.913Z,7.79
2023-02-22T08:34:45.169Z,7.87
2023-02-22T08:35:45.873Z,7.95
2023-02-22T08:36:46.613Z,8.00
2023-02-22T08:37:47.246Z,8.01
2023-02-22T08:38:48.412Z,8.08
2023-02-22T08:39:48.622Z,8.16
2023-02-22T08:40:49.330Z,8.19
2023-02-22T08:41:50.036Z,8.28
2023-02-22T08:42:50.752Z,8.34
2023-02-22T08:43:51.458Z,8.40
2023-02-22T08:44:52.180Z,8.48
2023-02-22T08:45:54.432Z,8.56
2023-02-22T08:46:53.633Z,8.65
2023-02-22T08:47:54.371Z,8.76
2023-02-22T08:48:55.410Z,8.87
2023-02-22T08:49:55.619Z,8.94
2023-02-22T08:50:56.331Z,8.99
2023-02-22T08:51:57.067Z,9.11
2023-02-22T08:52:57.707Z,9.21
2023-02-22T08:53:58.929Z,9.26
2023-02-22T08:54:59.155Z,9.31
2023-02-22T08:55:59.865Z,9.40
2023-02-22T08:57:00.578Z,9.50
2023-02-22T08:58:01.307Z,9.64
2023-02-22T08:59:02.408Z,9.71
2023-02-22T09:00:02.646Z,9.79
2023-02-22T09:01:03.344Z,9.91
2023-02-22T09:02:04.125Z,9.99
2023-02-22T09:03:04.807Z,10.07
2023-02-22T09:04:05.503Z,10.14
2023-02-22T09:05:06.206Z,10.23
2023-02-22T09:06:06.984Z,10.29
2023-02-22T09:07:07.767Z,10.29
2023-02-22T09:08:08.418Z,10.34
2023-02-22T09:09:09.413Z,10.40
2023-02-22T09:10:09.612Z,10.52
2023-02-22T09:11:10.319Z,10.59
2023-02-22T09:12:11.024Z,10.64
2023-02-22T09:13:11.732Z,10.67
2023-02-22T09:14:12.910Z,10.78
2023-02-22T09:15:13.115Z,10.91
2023-02-22T09:16:13.845Z,11.06
2023-02-22T09:17:14.523Z,11.14
2023-02-22T09:18:15.272Z,11.24
2023-02-22T09:19:16.416Z,11.39
2023-02-22T09:20:16.614Z,11.52
2023-02-22T09:21:17.651Z,11.51
2023-02-22T09:22:17.945Z,11.42
2023-02-22T09:23:20.703Z,11.52
2023-02-22T09:24:19.411Z,11.62
2023-02-22T09:25:19.616Z,11.69
2023-02-22T09:26:20.325Z,11.70
2023-02-22T09:27:21.038Z,11.78
2023-02-22T09:28:21.768Z,11.90
2023-02-22T09:29:22.469Z,11.94
2023-02-22T09:30:23.363Z,11.98
2023-02-22T09:31:24.133Z,12.02
2023-02-22T09:32:25.052Z,12.16
2023-02-22T09:33:25.814Z,12.27
2023-02-22T09:34:26.916Z,12.35
2023-02-22T09:35:27.651Z,12.45
2023-02-22T09:36:27.886Z,12.50
2023-02-22T09:37:28.618Z,12.67
2023-02-22T09:38:29.257Z,12.71
2023-02-22T09:39:29.994Z,12.77
2023-02-22T09:40:30.689Z,12.87
2023-02-22T09:41:31.401Z,12.97
2023-02-22T09:42:32.110Z,13.10
2023-02-22T09:43:32.828Z,13.12
2023-02-22T09:44:33.913Z,13.12
2023-02-22T09:45:34.182Z,13.12
2023-02-22T09:46:34.836Z,13.25
2023-02-22T09:47:35.606Z,13.38
2023-02-22T09:48:36.323Z,13.33
2023-02-22T09:49:36.982Z,13.25
2023-02-22T09:50:37.687Z,13.28
2023-02-22T09:51:38.395Z,13.32
2023-02-22T09:52:39.242Z,13.39
2023-02-22T09:53:39.867Z,13.33
2023-02-22T09:54:40.929Z,13.38
2023-02-22T09:55:41.146Z,13.44
2023-02-22T09:56:41.843Z,13.55
2023-02-22T09:57:42.551Z,13.67
2023-02-22T09:58:43.248Z,13.77
2023-02-22T09:59:44.420Z,13.79
2023-02-22T10:00:44.627Z,13.81
2023-02-22T10:01:45.339Z,13.89
2023-02-22T10:02:46.087Z,13.99
2023-02-22T10:03:46.857Z,13.96
2023-02-22T10:04:47.924Z,14.06
2023-02-22T10:05:48.128Z,14.00
2023-02-22T10:06:48.837Z,14.10
2023-02-22T10:07:49.561Z,14.21
2023-02-22T10:08:50.211Z,14.21
2023-02-22T10:09:50.912Z,14.24
2023-02-22T10:10:51.612Z,14.28
2023-02-22T10:11:52.322Z,14.32
2023-02-22T10:12:53.025Z,14.32
2023-02-22T10:13:53.735Z,14.35
2023-02-22T10:14:54.922Z,14.40
2023-02-22T10:15:55.125Z,14.33
2023-02-22T10:16:55.894Z,14.52
2023-02-22T10:17:56.539Z,14.60
2023-02-22T10:18:57.283Z,14.64
2023-02-22T10:19:58.420Z,14.72
2023-02-22T10:20:58.630Z,14.78
2023-02-22T10:21:59.355Z,14.92
2023-02-22T10:23:00.111Z,15.07
2023-02-22T10:24:00.741Z,15.20
2023-02-22T10:25:01.925Z,15.32
2023-02-22T10:26:02.134Z,15.43
2023-02-22T10:27:02.874Z,15.49
2023-02-22T10:28:03.612Z,15.43
2023-02-22T10:29:04.294Z,15.47
2023-02-22T10:30:15.558Z,15.43
2023-02-22T10:31:06.803Z,15.44
2023-02-22T10:32:06.616Z,15.38
2023-02-22T10:33:07.286Z,15.46
2023-02-22T10:34:08.023Z,15.41
2023-02-22T10:35:08.925Z,15.43
2023-02-22T10:36:09.633Z,15.51
2023-02-22T10:37:10.449Z,15.35
2023-02-22T10:38:11.161Z,15.44
2023-02-22T10:39:11.825Z,15.41
2023-02-22T10:40:12.930Z,15.47
2023-02-22T10:41:13.164Z,15.57
2023-02-22T10:42:13.867Z,15.69
2023-02-22T10:43:14.578Z,15.72
2023-02-22T10:44:15.287Z,15.59
2023-02-22T10:45:16.433Z,15.62
2023-02-22T10:46:17.267Z,15.69
2023-02-22T10:47:18.297Z,15.78
2023-02-22T10:48:18.447Z,15.78
2023-02-22T10:49:19.168Z,15.76
2023-02-22T10:50:19.933Z,15.64
2023-02-22T10:51:20.642Z,15.57
2023-02-22T10:52:21.349Z,15.60
2023-02-22T10:53:22.133Z,15.64
2023-02-22T10:54:22.756Z,15.76
2023-02-22T10:55:23.480Z,15.90
2023-02-22T10:56:24.184Z,16.01
2023-02-22T10:57:24.888Z,15.84
2023-02-22T10:58:25.594Z,15.71
2023-02-22T10:59:26.300Z,15.89
2023-02-22T11:00:27.435Z,16.00
2023-02-22T11:01:27.772Z,16.15
2023-02-22T11:02:28.470Z,16.38
2023-02-22T11:03:29.167Z,16.57
2023-02-22T11:04:29.983Z,16.78
2023-02-22T11:05:30.947Z,16.82
2023-02-22T11:06:31.167Z,16.86
2023-02-22T11:07:31.847Z,17.03
2023-02-22T11:08:32.587Z,17.19
2023-02-22T11:09:33.222Z,17.04
2023-02-22T11:10:34.435Z,16.81
2023-02-22T11:11:34.637Z,16.58
2023-02-22T11:12:35.344Z,16.79
2023-02-22T11:13:36.050Z,16.94
2023-02-22T11:14:36.754Z,17.00
2023-02-22T11:15:37.470Z,17.03
2023-02-22T11:16:38.330Z,17.15
2023-02-22T11:17:39.106Z,17.18
2023-02-22T11:18:39.808Z,17.12
2023-02-22T11:19:40.536Z,17.04
2023-02-22T11:20:41.439Z,17.22
2023-02-22T11:21:42.149Z,17.30
2023-02-22T11:22:42.855Z,17.40
2023-02-22T11:23:44.952Z,17.46
2023-02-22T11:24:49.339Z,17.49
2023-02-22T11:25:45.940Z,17.54
2023-02-22T11:26:45.649Z,17.58
2023-02-22T11:27:46.347Z,17.59
2023-02-22T11:28:47.052Z,17.51
2023-02-22T11:29:47.760Z,17.41
2023-02-22T11:30:49.041Z,17.22
2023-02-22T11:31:49.495Z,17.19
2023-02-22T11:32:49.745Z,17.23
2023-02-22T11:33:50.449Z,17.46
2023-02-22T11:35:00.162Z,17.71
2023-02-22T11:35:52.978Z,17.71
2023-02-22T11:36:52.649Z,17.70
2023-02-22T11:37:53.347Z,17.68
2023-02-22T11:38:54.087Z,17.52
2023-02-22T11:39:54.721Z,17.55
2023-02-22T11:40:55.442Z,17.58
2023-02-22T11:41:56.144Z,17.66
2023-02-22T11:42:56.850Z,17.62
2023-02-22T11:43:57.677Z,17.72
2023-02-22T11:44:58.293Z,17.44
2023-02-22T11:46:01.665Z,17.26
2023-02-22T11:46:59.574Z,17.56
2023-02-22T11:48:00.275Z,17.81
2023-02-22T11:49:00.987Z,17.90
2023-02-22T11:50:01.720Z,17.92
2023-02-22T11:51:02.449Z,18.10
2023-02-22T11:52:03.202Z,17.97
2023-02-22T11:53:03.909Z,17.99
2023-02-22T11:54:04.705Z,18.18
2023-02-22T11:55:05.387Z,18.15
2023-02-22T11:56:06.061Z,18.05
2023-02-22T11:57:06.799Z,18.12
2023-02-22T11:58:07.505Z,18.17
2023-02-22T11:59:08.213Z,18.11
2023-02-22T12:00:08.918Z,17.84
2023-02-22T12:01:09.946Z,18.07
2023-02-22T12:02:10.198Z,18.36
2023-02-22T12:03:10.909Z,18.67
2023-02-22T12:04:11.753Z,18.91
2023-02-22T12:05:12.592Z,18.87
2023-02-22T12:06:13.447Z,18.92
2023-02-22T12:07:14.162Z,19.18
2023-02-22T12:08:20.210Z,19.26
2023-02-22T12:09:16.507Z,19.28
2023-02-22T12:10:16.139Z,18.98
2023-02-22T12:11:16.952Z,18.98
2023-02-22T12:12:17.653Z,19.14
2023-02-22T12:13:18.380Z,19.40
2023-02-22T12:14:19.087Z,19.47
2023-02-22T12:15:19.784Z,19.43
2023-02-22T12:16:20.759Z,18.84
2023-02-22T12:17:21.006Z,18.62
2023-02-22T12:18:21.716Z,18.72
2023-02-22T12:19:22.421Z,18.73
2023-02-22T12:20:23.151Z,18.84
2023-02-22T12:21:23.946Z,18.91
2023-02-22T12:22:24.652Z,18.95
2023-02-22T12:23:25.363Z,19.14
2023-02-22T12:24:26.078Z,19.40
2023-02-22T12:25:26.751Z,19.47
2023-02-22T12:26:27.450Z,19.36
2023-02-22T12:27:28.282Z,19.23
2023-02-22T12:28:29.048Z,19.37
2023-02-22T12:29:29.864Z,19.41
2023-02-22T12:30:30.613Z,19.54
2023-02-22T12:31:31.495Z,19.80
2023-02-22T12:32:32.246Z,19.76
2023-02-22T12:33:33.039Z,19.37
2023-02-22T12:34:33.699Z,19.46
2023-02-22T12:35:34.413Z,19.33
2023-02-22T12:36:35.473Z,19.25
2023-02-22T12:37:35.687Z,19.36
2023-02-22T12:38:36.425Z,19.18
2023-02-22T12:39:51.846Z,18.85
2023-02-22T12:40:38.739Z,18.65
2023-02-22T12:41:38.954Z,18.78
2023-02-22T12:42:39.167Z,18.99
2023-02-22T12:43:39.867Z,19.02
2023-02-22T12:44:40.576Z,19.25
2023-02-22T12:45:41.285Z,19.59
2023-02-22T12:46:42.238Z,19.40
2023-02-22T12:47:42.915Z,19.28
2023-02-22T12:48:43.659Z,19.43
2023-02-22T12:49:44.334Z,19.59
2023-02-22T12:50:45.062Z,19.80
2023-02-22T12:51:45.754Z,19.95
2023-02-22T12:52:46.459Z,19.63
2023-02-22T12:53:47.169Z,19.58
2023-02-22T12:54:47.924Z,19.59
2023-02-22T12:55:48.587Z,19.63
2023-02-22T12:56:49.313Z,19.86
2023-02-22T12:57:50.023Z,19.87
2023-02-22T12:58:50.734Z,19.87
2023-02-22T12:59:51.440Z,19.86
2023-02-22T13:00:52.200Z,20.08
2023-02-22T13:01:53.031Z,20.17
2023-02-22T13:02:53.709Z,20.32
2023-02-22T13:03:54.424Z,20.23
2023-02-22T13:04:55.180Z,20.10
2023-02-22T13:05:55.849Z,20.20
2023-02-22T13:06:56.964Z,20.42
2023-02-22T13:07:57.171Z,20.57
2023-02-22T13:08:57.881Z,20.74
2023-02-22T13:09:58.693Z,20.94
2023-02-22T13:10:59.328Z,20.79
2023-02-22T13:12:00.048Z,20.58
2023-02-22T13:13:00.757Z,20.02
2023-02-22T13:14:01.468Z,19.92
2023-02-22T13:15:02.169Z,20.17
2023-02-22T13:16:02.936Z,20.24
2023-02-22T13:17:03.963Z,20.69
2023-02-22T13:18:04.170Z,20.89
2023-02-22T13:19:04.880Z,20.14